createdAt,value
2019-05-18T00:00:34.804Z,90.98
2019-05-18T00:03:16.485Z,91.26
2019-05-18T00:38:01.459Z,91.79
2019-05-18T00:40:50.688Z,91.31
2019-05-18T00:43:40.295Z,91.24
2019-05-18T00:46:12.305Z,92.13
2019-05-18T00:49:02.019Z,91.80
2019-05-18T00:51:51.323Z,91.56
2019-05-18T00:54:40.885Z,92.05
2019-05-18T00:57:31.031Z,92.83
2019-05-18T01:00:01.337Z,93.40
2019-05-18T01:02:34.934Z,92.86
2019-05-18T01:05:24.162Z,92.82
2019-05-18T01:08:13.710Z,92.09
2019-05-18T01:11:02.962Z,92.08
2019-05-18T01:13:52.247Z,91.34
2019-05-18T01:16:41.767Z,91.11
2019-05-18T01:19:49.886Z,90.44
2019-05-18T01:22:20.112Z,90.71
2019-05-18T01:25:57.613Z,89.48
2019-05-18T01:28:50.485Z,89.08
2019-05-18T01:31:23.041Z,89.09
2019-05-18T01:34:12.287Z,89.02
2019-05-18T01:39:50.711Z,88.84
2019-05-18T01:42:39.922Z,89.45
2019-05-18T01:45:49.881Z,89.47
2019-05-18T01:48:39.132Z,89.90
2019-05-18T01:51:28.637Z,90.53
2019-05-18T01:54:17.865Z,90.84
2019-05-18T02:00:14.308Z,90.81
2019-05-18T02:02:44.516Z,91.12
2019-05-18T02:05:34.058Z,91.47
2019-05-18T02:08:42.539Z,91.63
2019-05-18T02:11:12.775Z,91.46
2019-05-18T02:14:02.175Z,91.35
2019-05-18T02:17:14.580Z,92.04
2019-05-18T02:20:04.282Z,92.15
2019-05-18T02:22:34.557Z,91.81
2019-05-18T02:25:23.895Z,92.48
2019-05-18T02:28:13.130Z,92.95
2019-05-18T02:31:02.698Z,92.45
2019-05-18T02:33:51.923Z,92.78
2019-05-18T02:36:41.557Z,93.34
2019-05-18T02:39:11.886Z,93.06
2019-05-18T02:42:01.501Z,93.54
2019-05-18T02:44:31.957Z,93.55
2019-05-18T02:47:21.574Z,94.22
2019-05-18T02:52:41.048Z,94.02
2019-05-18T02:55:30.363Z,94.37
2019-05-18T02:58:19.714Z,94.26
2019-05-18T03:01:01.237Z,94.37
2019-05-18T03:03:31.860Z,93.82
2019-05-18T03:06:21.139Z,93.01
2019-05-18T03:08:53.170Z,93.76
2019-05-18T03:12:06.632Z,94.31
2019-05-18T03:14:55.984Z,94.56
2019-05-18T03:17:26.196Z,94.92
2019-05-18T03:19:56.744Z,95.40
2019-05-18T03:22:27.022Z,95.82
2019-05-18T03:25:16.194Z,95.96
2019-05-18T03:27:46.506Z,96.27
2019-05-18T03:30:18.141Z,96.26
2019-05-18T03:32:48.427Z,96.12
2019-05-18T03:35:37.984Z,95.13
2019-05-18T03:38:27.258Z,95.01
2019-05-18T03:47:11.011Z,94.52
2019-05-18T03:49:41.580Z,94.09
2019-05-18T03:52:11.898Z,94.43
2019-05-18T03:55:01.520Z,94.94
2019-05-18T03:57:50.803Z,95.75
2019-05-18T04:00:24.015Z,96.33
2019-05-18T04:03:05.559Z,96.46
2019-05-18T04:08:33.991Z,96.06
2019-05-18T04:11:15.505Z,96.03
2019-05-18T04:13:57.204Z,95.65
2019-05-18T04:16:39.286Z,95.74
2019-05-18T04:19:21.500Z,95.70
2019-05-18T04:22:03.250Z,95.51
2019-05-18T04:24:45.007Z,96.25
2019-05-18T04:27:15.930Z,96.46
2019-05-18T04:30:05.601Z,97.36
2019-05-18T04:32:55.154Z,97.71
2019-05-18T04:35:26.485Z,97.54
2019-05-18T04:37:56.803Z,97.64
2019-05-18T04:40:46.075Z,97.73
2019-05-18T04:43:16.432Z,98.05
2019-05-18T04:45:48.826Z,97.89
2019-05-18T04:48:38.195Z,97.81
2019-05-18T04:51:08.593Z,97.70
2019-05-18T04:53:58.457Z,98.30
2019-05-18T04:56:47.707Z,97.98
2019-05-18T04:59:19.177Z,97.75
2019-05-18T05:02:08.498Z,97.33
2019-05-18T05:04:57.862Z,96.59
2019-05-18T05:07:28.150Z,96.35
2019-05-18T05:10:17.436Z,96.21
2019-05-18T05:13:06.668Z,95.87
2019-05-18T05:15:56.257Z,95.83
2019-05-18T05:18:47.656Z,95.34
2019-05-18T05:21:17.892Z,95.02
2019-05-18T05:30:47.878Z,93.68
2019-05-18T05:33:37.269Z,93.17
2019-05-18T05:39:41.035Z,90.74
2019-05-18T05:42:11.384Z,90.98
2019-05-18T05:45:00.679Z,91.17
2019-05-18T05:47:30.889Z,90.79
2019-05-18T05:50:34.703Z,91.05
2019-05-18T05:52:52.591Z,88.97
2019-05-18T05:55:22.818Z,89.05
2019-05-18T05:57:56.154Z,88.82
2019-05-18T06:00:26.801Z,87.80
2019-05-18T06:02:57.011Z,86.69
2019-05-18T06:05:27.306Z,84.93
2019-05-18T06:07:57.495Z,84.03
2019-05-18T06:10:28.180Z,83.66
2019-05-18T06:12:58.448Z,82.94
2019-05-18T06:15:30.817Z,81.85
2019-05-18T06:18:19.950Z,80.09
2019-05-18T06:20:51.757Z,79.76
2019-05-18T06:23:23.802Z,79.29
2019-05-18T06:25:54.722Z,77.56
2019-05-18T06:28:43.981Z,77.32
2019-05-18T06:31:33.790Z,77.76
2019-05-18T06:34:06.987Z,77.45
2019-05-18T06:40:10.107Z,76.47
2019-05-18T06:43:00.642Z,75.58
2019-05-18T06:45:30.951Z,74.37
2019-05-18T06:48:02.558Z,74.15
2019-05-18T06:50:35.901Z,74.40
2019-05-18T06:53:25.460Z,72.07
2019-05-18T06:56:14.692Z,73.81
2019-05-18T06:59:03.942Z,71.02
2019-05-18T07:01:54.322Z,70.42
2019-05-18T07:04:44.854Z,70.81
2019-05-18T07:07:34.152Z,71.89
2019-05-18T07:10:23.717Z,71.03
2019-05-18T07:16:24.451Z,70.03
2019-05-18T07:19:03.046Z,68.58
2019-05-18T07:22:12.741Z,68.17
2019-05-18T07:25:01.996Z,65.40
2019-05-18T07:27:33.496Z,65.83
2019-05-18T07:30:09.513Z,65.52
2019-05-18T07:32:58.884Z,66.19
2019-05-18T07:35:29.166Z,66.55
2019-05-18T07:38:03.568Z,66.47
2019-05-18T07:43:15.064Z,65.11
2019-05-18T07:45:45.374Z,64.47
2019-05-18T07:48:15.610Z,63.48
2019-05-18T07:50:48.810Z,63.88
2019-05-18T07:53:20.287Z,61.68
2019-05-18T07:56:14.084Z,61.37
2019-05-18T07:59:03.354Z,60.59
2019-05-18T08:04:49.373Z,60.56
2019-05-18T08:07:56.300Z,59.82
2019-05-18T08:10:11.221Z,61.56
2019-05-18T08:13:06.760Z,60.30
2019-05-18T08:15:56.323Z,58.54
2019-05-18T08:24:45.161Z,61.80
2019-05-18T08:27:15.428Z,61.57
2019-05-18T08:29:47.305Z,61.43
2019-05-18T08:32:18.933Z,59.28
2019-05-18T08:35:08.389Z,56.16
2019-05-18T08:37:57.706Z,56.02
2019-05-18T08:40:31.062Z,52.93
2019-05-18T08:48:39.001Z,47.87
2019-05-18T08:51:28.310Z,47.59
2019-05-18T09:00:30.849Z,44.93
2019-05-18T09:03:02.392Z,45.19
2019-05-18T09:05:51.956Z,44.12
2019-05-18T09:08:41.210Z,42.87
2019-05-18T09:11:11.455Z,42.85
2019-05-18T09:14:00.967Z,44.69
2019-05-18T09:17:10.576Z,45.87
2019-05-18T09:20:02.986Z,44.30
2019-05-18T09:22:33.279Z,43.35
2019-05-18T09:25:26.465Z,40.10
2019-05-18T09:27:56.929Z,40.43
2019-05-18T09:30:27.315Z,41.95
2019-05-18T09:36:07.872Z,43.82
2019-05-18T09:39:16.043Z,42.62
2019-05-18T09:42:05.766Z,41.15
2019-05-18T09:44:57.799Z,41.05
2019-05-18T09:47:49.830Z,41.26
2019-05-18T09:50:44.979Z,40.57
2019-05-18T09:53:35.439Z,39.39
2019-05-18T10:00:15.717Z,35.95
2019-05-18T10:03:04.906Z,37.14
2019-05-18T10:05:36.799Z,37.99
2019-05-18T10:14:41.160Z,38.57
2019-05-18T10:17:11.350Z,37.42
2019-05-18T10:22:59.098Z,38.11
2019-05-18T10:28:32.200Z,38.45
2019-05-18T10:31:03.912Z,39.19
2019-05-18T10:33:34.234Z,37.72
2019-05-18T10:36:24.047Z,38.27
2019-05-18T10:38:54.353Z,39.51
2019-05-18T10:42:35.969Z,42.12
2019-05-18T10:44:40.151Z,40.54
2019-05-18T10:47:29.503Z,40.53
2019-05-18T10:50:18.794Z,43.08
2019-05-18T10:52:49.100Z,44.18
2019-05-18T10:55:38.666Z,42.28
2019-05-18T10:58:48.602Z,40.80
2019-05-18T11:01:39.199Z,40.26
2019-05-18T11:04:36.026Z,41.00
2019-05-18T11:07:06.734Z,39.81
2019-05-18T11:09:56.003Z,40.42
2019-05-18T11:12:29.071Z,42.06
2019-05-18T11:14:59.888Z,39.61
2019-05-18T11:17:47.781Z,40.66
2019-05-18T11:20:20.445Z,39.33
2019-05-18T11:23:09.981Z,40.80
2019-05-18T11:25:59.373Z,41.61
2019-05-18T11:29:09.875Z,39.35
2019-05-18T11:32:01.883Z,37.71
2019-05-18T11:34:32.345Z,37.91
2019-05-18T11:37:21.756Z,38.18
2019-05-18T11:39:55.315Z,39.02
2019-05-18T11:42:27.731Z,34.19
2019-05-18T11:45:17.791Z,34.77
2019-05-18T12:03:00.980Z,40.20
2019-05-18T12:06:23.093Z,38.83
2019-05-18T12:08:43.970Z,38.28
2019-05-18T12:14:24.161Z,41.97
2019-05-18T12:17:16.319Z,39.00
2019-05-18T12:20:20.195Z,40.39
2019-05-18T12:22:57.096Z,38.91
2019-05-18T12:26:05.287Z,38.94
2019-05-18T12:28:57.252Z,39.81
2019-05-18T12:31:49.223Z,39.56
2019-05-18T12:34:52.344Z,39.54
2019-05-18T12:37:29.827Z,38.51
2019-05-18T12:40:21.334Z,37.19
2019-05-18T12:43:30.927Z,36.67
2019-05-18T12:52:22.741Z,36.16
2019-05-18T12:55:12.314Z,35.73
2019-05-18T12:58:01.944Z,36.83
2019-05-18T13:00:51.259Z,36.85
2019-05-18T13:03:43.860Z,40.13
2019-05-18T13:06:26.104Z,38.90
2019-05-18T15:18:47.835Z,99.59
2019-05-18T15:27:45.834Z,100.00
2019-05-18T15:34:23.065Z,100.00
2019-05-18T15:37:30.402Z,100.00
2019-05-18T15:43:43.951Z,100.00
2019-05-18T15:49:32.385Z,100.00
2019-05-18T15:55:04.847Z,100.00
2019-05-18T15:57:36.310Z,100.00
2019-05-18T16:00:24.458Z,98.95
2019-05-18T16:03:14.568Z,97.89
2019-05-18T16:05:52.939Z,99.73
2019-05-18T16:08:31.525Z,100.00
2019-05-18T16:11:05.599Z,99.24
2019-05-18T16:13:36.256Z,97.53
2019-05-18T16:16:19.813Z,96.96
2019-05-18T16:18:50.570Z,96.80
2019-05-18T16:21:50.372Z,95.46
2019-05-18T16:24:31.440Z,94.66
2019-05-18T16:27:53.052Z,94.86
2019-05-18T16:30:45.639Z,95.30
2019-05-18T16:33:59.790Z,94.41
2019-05-18T16:37:39.091Z,95.15
2019-05-18T16:39:51.720Z,96.54
2019-05-18T16:46:08.717Z,96.45
2019-05-18T16:49:07.057Z,95.59
2019-05-18T16:52:03.821Z,92.82
2019-05-18T16:54:39.571Z,92.95
2019-05-18T16:57:18.296Z,93.50
2019-05-18T17:03:44.239Z,93.70
2019-05-18T17:06:22.598Z,94.69
2019-05-18T17:09:28.767Z,96.10
2019-05-18T17:12:01.813Z,93.58
2019-05-18T17:15:25.141Z,95.71
2019-05-18T17:18:02.811Z,95.29
2019-05-18T17:21:40.877Z,95.08
2019-05-18T17:24:11.593Z,96.52
2019-05-18T17:26:52.280Z,98.24
2019-05-18T17:29:17.632Z,99.23
2019-05-18T17:31:51.406Z,97.62
2019-05-18T17:34:22.111Z,98.81
2019-05-18T17:36:52.856Z,98.16
2019-05-18T17:39:23.668Z,98.79
2019-05-18T17:41:54.807Z,98.90
2019-05-18T17:44:25.986Z,100.00
2019-05-18T17:46:56.983Z,100.00
2019-05-18T17:49:28.019Z,100.00
2019-05-18T17:52:00.385Z,100.00
2019-05-18T17:54:31.923Z,100.00
2019-05-18T17:57:08.433Z,100.00
2019-05-18T17:59:37.031Z,100.00
2019-05-18T18:02:07.975Z,100.00
2019-05-18T18:04:45.103Z,100.00
2019-05-18T18:07:16.090Z,100.00
2019-05-18T18:09:50.481Z,100.00
2019-05-18T18:12:21.264Z,100.00
2019-05-18T18:14:52.102Z,100.00
2019-05-18T18:17:22.887Z,100.00
2019-05-18T18:19:54.215Z,100.00
2019-05-18T18:22:25.362Z,100.00
2019-05-18T18:24:58.661Z,100.00
2019-05-18T18:27:30.417Z,99.57
2019-05-18T18:30:03.959Z,100.00
2019-05-18T18:32:35.177Z,100.00
2019-05-18T18:35:08.737Z,100.00
2019-05-18T18:37:39.660Z,99.69
2019-05-18T18:40:10.708Z,99.93
2019-05-18T18:42:41.385Z,100.00
2019-05-18T18:45:13.533Z,100.00
2019-05-18T18:47:44.619Z,100.00
2019-05-18T18:50:18.273Z,100.00
2019-05-18T18:52:50.728Z,100.00
2019-05-18T18:55:22.570Z,100.00
2019-05-18T18:57:56.480Z,100.00
2019-05-18T19:00:28.659Z,100.00
2019-05-18T19:03:00.796Z,100.00
2019-05-18T19:05:31.677Z,100.00
2019-05-18T19:08:04.195Z,100.00
2019-05-18T19:10:38.110Z,100.00
2019-05-18T19:13:10.048Z,100.00
2019-05-18T19:15:41.307Z,100.00
2019-05-18T19:18:12.552Z,100.00
2019-05-18T19:20:43.583Z,100.00
2019-05-18T19:23:14.519Z,100.00
2019-05-18T19:25:45.657Z,100.00
2019-05-18T19:28:16.552Z,100.00
2019-05-18T19:30:47.335Z,100.00
2019-05-18T19:33:18.163Z,100.00
2019-05-18T19:35:50.439Z,100.00
2019-05-18T19:38:21.334Z,100.00
2019-05-18T19:40:53.425Z,100.00
2019-05-18T19:43:24.184Z,100.00
2019-05-18T19:45:55.010Z,100.00
2019-05-18T19:48:25.732Z,100.00
2019-05-18T19:50:56.533Z,100.00
2019-05-18T19:53:31.279Z,100.00
2019-05-18T19:56:03.731Z,100.00
2019-05-18T19:58:34.464Z,100.00
2019-05-18T20:01:05.808Z,100.00
2019-05-18T20:03:36.787Z,100.00
2019-05-18T20:06:10.266Z,100.00
2019-05-18T20:08:41.323Z,100.00
2019-05-18T20:11:13.125Z,100.00
2019-05-18T20:13:44.904Z,100.00
2019-05-18T20:16:15.607Z,100.00
2019-05-18T20:18:48.070Z,100.00
2019-05-18T20:21:19.282Z,100.00
2019-05-18T20:23:50.621Z,100.00
2019-05-18T20:26:23.223Z,100.00
2019-05-18T20:28:56.651Z,100.00
2019-05-18T20:31:27.117Z,99.34
2019-05-18T20:33:58.224Z,97.70
2019-05-18T20:36:29.085Z,95.47
2019-05-18T20:39:00.254Z,95.45
2019-05-18T20:41:36.263Z,97.14
2019-05-18T20:44:10.453Z,97.22
2019-05-18T20:46:52.295Z,98.23
2019-05-18T20:49:23.091Z,99.67
2019-05-18T20:51:53.940Z,99.24
2019-05-18T20:54:25.644Z,99.02
2019-05-18T20:56:58.366Z,100.00
2019-05-18T20:59:29.661Z,100.00
2019-05-18T21:02:01.692Z,100.00
2019-05-18T21:04:32.608Z,100.00
2019-05-18T21:07:03.615Z,100.00
2019-05-18T21:09:35.191Z,100.00
2019-05-18T21:12:07.307Z,100.00
2019-05-18T21:14:39.833Z,100.00
2019-05-18T21:17:11.036Z,100.00
2019-05-18T21:19:42.362Z,100.00
2019-05-18T21:22:13.135Z,100.00
2019-05-18T21:24:44.964Z,100.00
2019-05-18T21:27:16.088Z,100.00
2019-05-18T21:29:47.126Z,100.00
2019-05-18T21:32:19.329Z,100.00
2019-05-18T21:34:50.177Z,100.00
2019-05-18T21:37:22.479Z,100.00
2019-05-18T21:39:53.272Z,100.00
2019-05-18T21:42:26.659Z,100.00
2019-05-18T21:45:07.802Z,100.00
2019-05-18T21:47:38.639Z,100.00
2019-05-18T21:50:10.276Z,100.00
2019-05-18T21:52:42.130Z,100.00
2019-05-18T21:55:13.269Z,100.00
2019-05-18T21:57:44.297Z,100.00
2019-05-18T22:00:18.632Z,100.00
2019-05-18T22:02:49.800Z,100.00
2019-05-18T22:05:20.767Z,100.00
2019-05-18T22:07:51.504Z,100.00
2019-05-18T22:10:26.175Z,100.00
2019-05-18T22:12:57.458Z,100.00
2019-05-18T22:15:28.203Z,100.00
2019-05-18T22:18:06.540Z,100.00
2019-05-18T22:20:43.574Z,100.00
2019-05-18T22:23:11.438Z,100.00
2019-05-18T22:25:42.987Z,100.00
2019-05-18T22:28:13.846Z,100.00
2019-05-18T22:30:47.003Z,100.00
2019-05-18T22:33:18.510Z,100.00
2019-05-18T22:35:49.201Z,100.00
2019-05-18T22:38:20.357Z,100.00
2019-05-18T22:40:51.347Z,100.00
2019-05-18T22:43:22.096Z,100.00
2019-05-18T22:45:52.783Z,100.00
2019-05-18T22:48:23.625Z,100.00
2019-05-18T22:50:55.891Z,100.00
2019-05-18T22:53:26.629Z,100.00
2019-05-18T22:55:58.898Z,100.00
2019-05-18T22:58:29.807Z,100.00
2019-05-18T23:01:00.660Z,100.00
2019-05-18T23:03:31.815Z,100.00
2019-05-18T23:06:02.910Z,100.00
2019-05-18T23:08:34.857Z,100.00
2019-05-18T23:11:06.061Z,100.00
2019-05-18T23:13:37.017Z,100.00
2019-05-18T23:16:08.823Z,100.00
2019-05-18T23:18:54.467Z,100.00
2019-05-18T23:21:13.745Z,100.00
2019-05-18T23:23:44.995Z,100.00
2019-05-18T23:26:16.425Z,100.00
2019-05-18T23:28:48.279Z,100.00
2019-05-18T23:31:21.491Z,100.00
2019-05-18T23:33:53.731Z,100.00
2019-05-18T23:36:26.394Z,100.00
2019-05-18T23:38:58.841Z,100.00
2019-05-18T23:41:30.667Z,100.00
2019-05-18T23:44:02.166Z,100.00
2019-05-18T23:46:35.427Z,100.00
2019-05-18T23:49:10.907Z,100.00
2019-05-18T23:51:40.889Z,100.00
2019-05-18T23:54:11.868Z,100.00
2019-05-18T23:56:42.723Z,100.00
2019-05-18T23:59:13.608Z,100.00
